Time;durP1;ratioP1;P1;durP2;ratioP2;P2;SDS_P1;SDS_P2;PMS_P1;PMS_P2;Temp;Humidity;BMP_temperature;BMP_pressure;BME280_temperature;BME280_humidity;BME280_pressure;Samples;Min_cycle;Max_cycle;Signal;HPM_P1;HPM_P2
2023/08/27 14:12:46;;;;;;;11.20;6.38;;;22.50;99.90;;;;;;5086749;28;20471;-74
2023/08/27 14:15:12;;;;;;;11.30;6.22;;;22.60;99.90;;;;;;5085757;28;20036;-72
2023/08/27 14:17:38;;;;;;;8.52;6.22;;;22.80;99.90;;;;;;5087504;28;20417;-72
2023/08/27 14:20:04;;;;;;;12.40;6.63;;;22.70;99.90;;;;;;5085484;28;20040;-72
2023/08/27 14:22:30;;;;;;;8.80;4.72;;;22.70;99.90;;;;;;5088313;28;20070;-73
2023/08/27 14:24:56;;;;;;;9.07;5.95;;;22.80;99.90;;;;;;5088679;28;20024;-72
2023/08/27 14:27:22;;;;;;;12.32;6.03;;;23.10;99.90;;;;;;5087923;28;20445;-73
2023/08/27 14:29:47;;;;;;;9.95;6.13;;;23.00;99.90;;;;;;5086661;28;20028;-72
2023/08/27 14:32:13;;;;;;;13.88;6.75;;;23.10;99.90;;;;;;5086385;28;20426;-73
2023/08/27 14:34:39;;;;;;;20.92;10.10;;;23.20;99.90;;;;;;5088078;28;20591;-71
2023/08/27 14:37:04;;;;;;;13.25;6.80;;;23.30;99.90;;;;;;5086822;28;20059;-71
2023/08/27 14:39:30;;;;;;;11.07;6.53;;;23.20;99.90;;;;;;5078500;28;20129;-71
2023/08/27 14:41:56;;;;;;;12.10;6.32;;;23.20;99.90;;;;;;5082644;28;20020;-72
2023/08/27 14:44:22;;;;;;;12.35;6.05;;;23.40;99.90;;;;;;5076781;28;20028;-72
2023/08/27 14:46:47;;;;;;;16.08;8.80;;;23.30;99.90;;;;;;5068039;28;20037;-72
2023/08/27 14:49:13;;;;;;;14.07;7.32;;;23.30;99.90;;;;;;5062234;28;20028;-73
2023/08/27 14:51:39;;;;;;;15.65;7.90;;;23.60;99.90;;;;;;5080707;28;20086;-72
2023/08/27 14:54:04;;;;;;;14.73;6.72;;;23.70;99.90;;;;;;5082602;28;20044;-72
2023/08/27 14:56:30;;;;;;;16.92;6.93;;;23.80;99.90;;;;;;5078387;28;20032;-71
2023/08/27 14:58:57;;;;;;;13.02;6.65;;;23.80;99.90;;;;;;5084107;28;20474;-72
2023/08/27 15:01:23;;;;;;;11.57;6.57;;;23.90;99.90;;;;;;5071614;28;20044;-72
2023/08/27 15:03:49;;;;;;;11.43;6.75;;;23.90;99.90;;;;;;5064038;28;20863;-73
2023/08/27 15:06:15;;;;;;;15.40;6.88;;;23.90;99.90;;;;;;5076254;28;20024;-72
2023/08/27 15:08:41;;;;;;;11.40;7.00;;;24.10;99.90;;;;;;5078148;28;20557;-72
2023/08/27 15:11:07;;;;;;;12.15;5.68;;;24.10;99.90;;;;;;5070394;28;20067;-71
2023/08/27 15:13:32;;;;;;;9.38;6.13;;;24.30;99.90;;;;;;5079613;28;20394;-71
2023/08/27 15:15:58;;;;;;;12.63;6.15;;;24.50;99.90;;;;;;5080995;28;20073;-71
2023/08/27 15:18:25;;;;;;;13.07;6.20;;;24.50;99.90;;;;;;5079760;28;20102;-71
2023/08/27 15:20:51;;;;;;;12.32;6.55;;;24.50;99.90;;;;;;5080179;28;20421;-71
2023/08/27 15:23:16;;;;;;;12.40;6.95;;;24.40;99.90;;;;;;5071873;28;20048;-71
2023/08/27 15:25:42;;;;;;;15.40;6.45;;;24.40;99.90;;;;;;5069467;28;20502;-72
2023/08/27 15:28:08;;;;;;;12.93;6.38;;;24.40;99.90;;;;;;5069522;28;20029;-71
2023/08/27 15:30:35;;;;;;;12.57;6.90;;;24.40;99.90;;;;;;5067342;28;20029;-72
2023/08/27 15:33:01;;;;;;;15.35;6.50;;;24.30;99.90;;;;;;5060712;28;20032;-72
2023/08/27 15:35:27;;;;;;;16.48;5.50;;;24.40;99.90;;;;;;5058652;28;20413;-72
2023/08/27 15:37:52;;;;;;;8.52;5.85;;;24.40;99.90;;;;;;5058408;28;20486;-72
2023/08/27 15:40:18;;;;;;;12.80;5.68;;;24.50;99.90;;;;;;5067393;28;20397;-72
2023/08/27 15:42:44;;;;;;;8.48;6.20;;;24.30;99.90;;;;;;5064083;28;20041;-72
2023/08/27 15:45:10;;;;;;;8.75;6.35;;;24.20;99.90;;;;;;5063771;28;20705;-71
2023/08/27 15:47:36;;;;;;;11.43;5.55;;;24.10;99.90;;;;;;5052560;28;20029;-72
2023/08/27 15:50:05;;;;;;;11.63;7.05;;;24.10;99.90;;;;;;5051654;28;20025;-72
2023/08/27 15:52:30;;;;;;;11.98;5.97;;;24.00;99.90;;;;;;5050200;28;20021;-72
2023/08/27 15:54:56;;;;;;;11.85;5.95;;;24.00;99.90;;;;;;5049812;28;20029;-73
2023/08/27 15:57:22;;;;;;;15.73;6.63;;;23.90;99.90;;;;;;5061033;28;20248;-73
2023/08/27 15:59:47;;;;;;;9.55;5.63;;;23.90;99.90;;;;;;5047652;28;20086;-72
2023/08/27 16:02:13;;;;;;;11.55;5.53;;;23.70;99.90;;;;;;5049813;28;20047;-72
2023/08/27 16:04:39;;;;;;;12.60;6.53;;;23.60;99.90;;;;;;5059559;28;20082;-72
2023/08/27 16:07:04;;;;;;;11.60;6.93;;;23.60;99.90;;;;;;5046929;28;20044;-72
2023/08/27 16:09:30;;;;;;;12.35;5.82;;;23.70;99.90;;;;;;5049171;28;20025;-74
2023/08/27 16:11:56;;;;;;;13.85;7.40;;;23.70;99.90;;;;;;5055288;28;20052;-73
2023/08/27 16:14:21;;;;;;;15.73;6.85;;;23.40;99.90;;;;;;5053977;28;20039;-75
2023/08/27 16:16:47;;;;;;;12.77;7.10;;;23.40;99.90;;;;;;5051195;28;20129;-72
2023/08/27 16:19:13;;;;;;;12.45;7.32;;;23.30;99.90;;;;;;5049364;28;20043;-74
2023/08/27 16:21:38;;;;;;;11.23;7.25;;;23.20;99.90;;;;;;5050176;28;20041;-74
2023/08/27 16:24:04;;;;;;;12.88;6.82;;;23.30;99.90;;;;;;5053368;28;20029;-76
2023/08/27 16:26:30;;;;;;;12.52;8.32;;;23.30;99.90;;;;;;5053021;28;20035;-75
2023/08/27 16:28:56;;;;;;;11.77;6.35;;;23.30;99.90;;;;;;5049523;28;20332;-74
2023/08/27 16:31:26;;;;;;;12.20;6.95;;;23.30;99.90;;;;;;5044786;28;20506;-75
2023/08/27 16:33:52;;;;;;;13.85;7.38;;;23.20;99.90;;;;;;5045424;28;20021;-74
2023/08/27 16:36:19;;;;;;;8.77;6.65;;;23.10;99.90;;;;;;5046927;28;26401;-74
2023/08/27 16:38:45;;;;;;;9.88;6.40;;;22.90;99.90;;;;;;5045137;28;20304;-75
2023/08/27 16:41:11;;;;;;;11.93;6.15;;;22.90;99.90;;;;;;5060250;28;20072;-75
2023/08/27 16:43:37;;;;;;;9.40;6.97;;;22.80;99.90;;;;;;5063246;28;20063;-75
2023/08/27 16:46:03;;;;;;;10.88;7.10;;;22.80;99.90;;;;;;5047423;28;20028;-75
2023/08/27 16:48:29;;;;;;;10.90;5.78;;;22.40;99.90;;;;;;5054706;28;20033;-75
2023/08/27 16:50:55;;;;;;;13.23;6.22;;;22.00;99.90;;;;;;5054953;28;20492;-74
2023/08/27 16:53:21;;;;;;;12.18;6.70;;;21.80;99.90;;;;;;5062145;28;20060;-75
2023/08/27 16:55:48;;;;;;;12.02;6.22;;;21.70;99.90;;;;;;5048115;28;20032;-74
2023/08/27 16:58:14;;;;;;;13.30;6.60;;;21.70;99.90;;;;;;5063456;28;20024;-74
2023/08/27 17:00:41;;;;;;;10.38;6.95;;;21.60;99.90;;;;;;5063859;28;20035;-74
2023/08/27 17:03:15;;;;;;;11.40;6.63;;;21.50;99.90;;;;;;5062546;28;20083;-74
2023/08/27 17:05:41;;;;;;;10.52;6.50;;;21.40;99.90;;;;;;5054506;28;20032;-74
2023/08/27 17:08:07;;;;;;;14.75;6.85;;;21.30;99.90;;;;;;5060447;28;20033;-74
2023/08/27 17:10:33;;;;;;;11.05;6.45;;;21.50;99.90;;;;;;5052027;28;20040;-74
2023/08/27 17:12:58;;;;;;;10.15;6.25;;;21.60;99.90;;;;;;5057114;28;20639;-74
2023/08/27 17:15:24;;;;;;;14.02;7.22;;;21.70;99.90;;;;;;5060810;28;20125;-74
2023/08/27 17:17:49;;;;;;;11.98;7.10;;;21.40;99.90;;;;;;5048118;28;20040;-74
2023/08/27 17:20:15;;;;;;;10.43;5.63;;;21.50;99.90;;;;;;5054095;28;20039;-76
2023/08/27 17:22:41;;;;;;;10.70;5.88;;;21.50;99.90;;;;;;5043928;28;20135;-76
2023/08/27 17:25:07;;;;;;;11.25;6.53;;;21.30;99.90;;;;;;5041515;28;20123;-76
2023/08/27 17:27:33;;;;;;;11.98;6.63;;;21.40;99.90;;;;;;5055944;28;20461;-76
2023/08/27 17:29:59;;;;;;;10.75;6.60;;;21.30;99.90;;;;;;5048147;28;20029;-76
2023/08/27 17:32:24;;;;;;;12.10;7.03;;;21.30;99.90;;;;;;5054217;28;20033;-76
2023/08/27 17:34:50;;;;;;;12.13;6.03;;;21.40;99.90;;;;;;5049865;28;20471;-76
2023/08/27 17:37:16;;;;;;;15.48;6.82;;;21.40;99.90;;;;;;5054871;28;20139;-76
2023/08/27 17:39:42;;;;;;;11.73;6.63;;;21.30;99.90;;;;;;5058066;28;20033;-76
2023/08/27 17:42:07;;;;;;;13.75;6.75;;;21.30;99.90;;;;;;5056521;28;20056;-76
2023/08/27 17:44:34;;;;;;;13.30;5.90;;;21.40;99.90;;;;;;5056314;28;20028;-77
2023/08/27 17:47:00;;;;;;;15.38;6.05;;;21.30;99.90;;;;;;5059197;28;20032;-78
2023/08/27 17:49:26;;;;;;;9.60;5.70;;;21.40;99.90;;;;;;5064902;28;20036;-77
2023/08/27 17:51:52;;;;;;;9.40;5.95;;;21.40;99.90;;;;;;5050807;28;20040;-76
2023/08/27 17:54:17;;;;;;;11.75;5.75;;;21.40;99.90;;;;;;5057406;28;20032;-78
2023/08/27 17:56:43;;;;;;;8.95;5.93;;;21.20;99.90;;;;;;5045968;28;20033;-77
2023/08/27 17:59:09;;;;;;;9.23;6.20;;;21.10;99.90;;;;;;5055834;28;20429;-78
2023/08/27 18:01:35;;;;;;;8.88;5.93;;;21.20;99.90;;;;;;5048310;28;20041;-77
2023/08/27 18:04:00;;;;;;;8.98;6.13;;;21.00;99.90;;;;;;5051942;28;20064;-78
2023/08/27 18:06:26;;;;;;;11.75;6.30;;;20.70;99.90;;;;;;5056102;28;20433;-77
2023/08/27 18:08:51;;;;;;;9.57;6.97;;;20.70;99.90;;;;;;5050268;28;20078;-77
2023/08/27 18:11:17;;;;;;;11.55;6.28;;;20.70;99.90;;;;;;5049621;28;20098;-76
2023/08/27 18:13:43;;;;;;;10.40;6.55;;;20.80;99.90;;;;;;5064172;28;20101;-76
2023/08/27 18:16:08;;;;;;;9.48;6.60;;;20.80;99.90;;;;;;5061809;28;20025;-76
2023/08/27 18:18:35;;;;;;;12.60;6.47;;;20.70;99.90;;;;;;5046410;28;20025;-76
2023/08/27 18:21:01;;;;;;;9.90;6.43;;;20.80;99.90;;;;;;5056520;28;20024;-78
2023/08/27 18:23:27;;;;;;;9.68;6.53;;;20.90;99.90;;;;;;5064104;28;20078;-75
2023/08/27 18:25:53;;;;;;;11.93;6.88;;;20.90;99.90;;;;;;5062226;28;20116;-77
2023/08/27 18:28:19;;;;;;;9.45;6.80;;;20.80;99.90;;;;;;5049977;28;20110;-76
2023/08/27 18:30:45;;;;;;;10.25;6.28;;;20.40;99.90;;;;;;5056556;28;20021;-75
2023/08/27 18:33:10;;;;;;;14.38;6.57;;;20.60;99.90;;;;;;5055251;28;20025;-76
2023/08/27 18:35:36;;;;;;;10.07;6.82;;;20.40;99.90;;;;;;5052827;28;20082;-77
2023/08/27 18:38:04;;;;;;;11.55;6.68;;;20.40;99.90;;;;;;5052442;28;20078;-78
2023/08/27 18:40:29;;;;;;;10.10;6.38;;;20.40;99.90;;;;;;5058483;28;20494;-77
2023/08/27 18:42:55;;;;;;;11.57;6.50;;;20.50;99.90;;;;;;5061973;28;20032;-76
2023/08/27 18:45:21;;;;;;;8.48;6.03;;;20.40;99.90;;;;;;5054015;28;20111;-77
2023/08/27 18:47:47;;;;;;;11.70;6.80;;;20.50;99.90;;;;;;5048013;28;20100;-77
2023/08/27 18:50:12;;;;;;;9.05;6.40;;;20.40;99.90;;;;;;5042331;28;20021;-77
2023/08/27 18:52:38;;;;;;;9.05;6.10;;;20.40;99.90;;;;;;5045545;28;20033;-77
2023/08/27 18:55:04;;;;;;;10.68;6.28;;;20.30;99.90;;;;;;5048847;28;20108;-76
2023/08/27 18:57:31;;;;;;;12.15;6.47;;;20.40;99.90;;;;;;5048567;28;20063;-76
2023/08/27 18:59:58;;;;;;;12.13;6.82;;;20.40;99.90;;;;;;5052088;28;20063;-76
2023/08/27 19:02:23;;;;;;;10.23;6.18;;;20.40;99.90;;;;;;5047134;28;20496;-76
2023/08/27 19:04:49;;;;;;;14.15;6.22;;;20.50;99.90;;;;;;5048604;28;20040;-76
2023/08/27 19:07:15;;;;;;;10.05;7.13;;;20.40;99.90;;;;;;5050829;28;20025;-76
2023/08/27 19:09:42;;;;;;;12.68;7.30;;;20.30;99.90;;;;;;5044876;28;20427;-77
2023/08/27 19:12:08;;;;;;;10.60;6.22;;;20.30;99.90;;;;;;5054822;28;20040;-77
2023/08/27 19:14:34;;;;;;;11.10;6.65;;;20.30;99.90;;;;;;5053198;28;20025;-76
2023/08/27 19:17:00;;;;;;;16.17;6.65;;;20.10;99.90;;;;;;5051053;28;20890;-76
2023/08/27 19:19:26;;;;;;;8.88;6.63;;;20.20;99.90;;;;;;5046347;28;20033;-76
2023/08/27 19:21:52;;;;;;;9.90;6.53;;;20.20;99.90;;;;;;5043721;28;20032;-78
2023/08/27 19:24:18;;;;;;;13.38;8.07;;;20.00;99.90;;;;;;5053267;28;20029;-77
2023/08/27 19:26:43;;;;;;;12.38;7.63;;;20.10;99.90;;;;;;5044974;28;20041;-77
2023/08/27 19:29:09;;;;;;;13.57;7.90;;;20.10;99.90;;;;;;5055854;28;20037;-77
2023/08/27 19:31:35;;;;;;;13.63;7.72;;;20.10;99.90;;;;;;5053982;28;20040;-76
2023/08/27 19:34:00;;;;;;;13.55;7.40;;;20.20;99.90;;;;;;5049359;28;20056;-76
2023/08/27 19:36:26;;;;;;;12.73;7.25;;;20.10;99.90;;;;;;5045987;28;20029;-75
2023/08/27 19:38:52;;;;;;;13.38;7.10;;;20.00;99.90;;;;;;5055126;28;20037;-74
2023/08/27 19:41:18;;;;;;;11.63;6.55;;;19.80;99.90;;;;;;5041611;28;20455;-74
2023/08/27 19:43:44;;;;;;;12.25;7.15;;;19.70;99.90;;;;;;5048174;28;20459;-74
2023/08/27 19:46:09;;;;;;;12.82;6.65;;;19.80;99.90;;;;;;5048528;28;20021;-74
2023/08/27 19:48:36;;;;;;;12.77;7.57;;;19.90;99.90;;;;;;5045020;28;20386;-74
2023/08/27 19:51:03;;;;;;;14.00;6.55;;;20.00;99.90;;;;;;5047477;28;20032;-74
2023/08/27 19:53:29;;;;;;;11.25;7.90;;;20.00;99.90;;;;;;5056658;28;20547;-74
2023/08/27 19:55:55;;;;;;;12.52;6.90;;;20.00;99.90;;;;;;5044094;28;20033;-74
2023/08/27 19:58:21;;;;;;;15.50;7.63;;;20.20;99.90;;;;;;5045668;28;20532;-74
2023/08/27 20:00:47;;;;;;;11.25;6.75;;;20.00;99.90;;;;;;5046593;28;20037;-75
2023/08/27 20:03:13;;;;;;;13.57;8.55;;;19.90;99.90;;;;;;5058519;28;20077;-75
2023/08/27 20:05:42;;;;;;;9.82;7.22;;;20.00;99.90;;;;;;5052393;28;20056;-74
2023/08/27 20:08:09;;;;;;;15.43;7.00;;;19.90;99.90;;;;;;5043175;28;20056;-75
2023/08/27 20:10:37;;;;;;;11.82;7.82;;;19.90;99.90;;;;;;5042814;28;20032;-75
2023/08/27 20:13:07;;;;;;;12.90;6.88;;;20.10;99.90;;;;;;5045278;28;20403;-75
2023/08/27 20:15:37;;;;;;;11.35;6.63;;;20.20;99.90;;;;;;5043904;28;20028;-75
2023/08/27 20:18:04;;;;;;;12.73;7.32;;;20.10;99.90;;;;;;5051248;28;20060;-73
2023/08/27 20:20:30;;;;;;;14.52;6.85;;;20.20;99.90;;;;;;5050353;28;20025;-74
2023/08/27 20:22:56;;;;;;;12.73;6.97;;;20.30;99.90;;;;;;5045832;28;20044;-75
2023/08/27 20:25:22;;;;;;;11.80;6.55;;;20.50;99.90;;;;;;5046145;28;20039;-74
2023/08/27 20:27:49;;;;;;;14.70;7.05;;;20.50;99.90;;;;;;5046317;28;20040;-75
2023/08/27 20:30:15;;;;;;;12.35;6.97;;;20.70;99.90;;;;;;5055336;28;20028;-74
2023/08/27 20:32:41;;;;;;;10.32;6.53;;;20.80;99.90;;;;;;5057607;28;20047;-75
2023/08/27 20:35:08;;;;;;;11.90;6.80;;;20.90;99.90;;;;;;5050632;28;20033;-74
2023/08/27 20:37:33;;;;;;;14.82;7.32;;;20.90;99.90;;;;;;5047850;28;20439;-76
2023/08/27 20:39:59;;;;;;;15.80;8.02;;;20.70;99.90;;;;;;5048739;28;20123;-75
2023/08/27 20:42:27;;;;;;;10.35;6.88;;;20.70;99.90;;;;;;5068892;28;20046;-75
2023/08/27 20:44:52;;;;;;;11.95;6.45;;;20.80;99.90;;;;;;5052991;28;20021;-76
2023/08/27 20:47:18;;;;;;;11.55;6.88;;;20.70;99.90;;;;;;5056637;28;20788;-75
2023/08/27 20:49:43;;;;;;;10.88;6.75;;;20.50;99.90;;;;;;5060237;28;20046;-75
2023/08/27 20:52:09;;;;;;;12.73;7.13;;;20.50;99.90;;;;;;5061346;28;20115;-75
2023/08/27 20:54:35;;;;;;;14.52;6.90;;;20.50;99.90;;;;;;5066821;28;20039;-75
2023/08/27 20:57:00;;;;;;;14.55;7.25;;;20.40;99.90;;;;;;5059477;28;20036;-75
2023/08/27 20:59:26;;;;;;;8.43;5.65;;;20.50;99.90;;;;;;5048389;28;20112;-74
2023/08/27 21:01:52;;;;;;;12.45;7.22;;;20.60;99.90;;;;;;5047665;28;20097;-75
2023/08/27 21:04:17;;;;;;;22.45;6.60;;;20.70;99.90;;;;;;5045720;28;20036;-76
2023/08/27 21:06:43;;;;;;;11.55;7.57;;;20.80;99.90;;;;;;5051904;28;20040;-78
2023/08/27 21:09:10;;;;;;;13.35;6.95;;;20.80;99.90;;;;;;5066272;28;20383;-78
2023/08/27 21:11:35;;;;;;;8.40;6.40;;;20.80;99.90;;;;;;5056076;28;20190;-77
2023/08/27 21:14:01;;;;;;;9.48;7.00;;;20.70;99.90;;;;;;5061035;28;20123;-77
2023/08/27 21:16:27;;;;;;;11.88;7.40;;;20.80;99.90;;;;;;5051273;28;20036;-78
2023/08/27 21:18:53;;;;;;;12.07;8.00;;;20.80;99.90;;;;;;5048759;28;20124;-78
2023/08/27 21:21:18;;;;;;;13.73;6.68;;;20.80;99.90;;;;;;5053640;28;20029;-78
2023/08/27 21:23:44;;;;;;;9.43;6.78;;;20.90;99.90;;;;;;5045861;28;20033;-77
2023/08/27 21:26:10;;;;;;;10.77;6.55;;;20.90;99.90;;;;;;5049930;28;20618;-76
2023/08/27 21:28:37;;;;;;;12.52;6.65;;;20.90;99.90;;;;;;5047468;28;20124;-78
2023/08/27 21:31:03;;;;;;;10.35;6.57;;;20.80;99.90;;;;;;5045931;28;20070;-77
2023/08/27 21:33:28;;;;;;;10.30;5.93;;;20.90;99.90;;;;;;5047582;28;20033;-77
2023/08/27 21:35:54;;;;;;;11.73;7.07;;;20.90;99.90;;;;;;5053224;28;20111;-77
2023/08/27 21:38:20;;;;;;;9.60;7.13;;;20.90;99.90;;;;;;5046911;28;20029;-77
2023/08/27 21:40:50;;;;;;;10.52;7.18;;;20.80;99.90;;;;;;5053325;28;20525;-77
2023/08/27 21:43:16;;;;;;;12.13;7.15;;;20.60;99.90;;;;;;5050273;28;20471;-77
2023/08/27 21:45:42;;;;;;;14.13;7.82;;;20.50;99.90;;;;;;5049868;28;20111;-76
2023/08/27 21:48:08;;;;;;;13.15;7.57;;;20.60;99.90;;;;;;5053830;28;20348;-77
2023/08/27 21:50:33;;;;;;;13.90;7.55;;;20.60;99.90;;;;;;5046641;28;20154;-77
2023/08/27 21:52:59;;;;;;;10.30;7.38;;;20.60;99.90;;;;;;5050557;28;20071;-76
2023/08/27 21:55:25;;;;;;;9.80;7.30;;;20.70;99.90;;;;;;5046569;28;20079;-76
2023/08/27 21:57:55;;;;;;;13.45;8.35;;;20.60;99.90;;;;;;5047063;28;20063;-76
2023/08/27 22:00:22;;;;;;;13.07;7.68;;;20.70;99.90;;;;;;5045952;28;20114;-76
2023/08/27 22:02:49;;;;;;;12.52;6.88;;;20.60;99.90;;;;;;5049525;28;20037;-76
2023/08/27 22:05:15;;;;;;;13.85;7.72;;;20.60;99.90;;;;;;5049376;28;20754;-77
2023/08/27 22:07:41;;;;;;;14.30;7.65;;;20.60;99.90;;;;;;5043766;28;20507;-76
2023/08/27 22:10:08;;;;;;;13.98;7.80;;;20.60;99.90;;;;;;5055870;28;20024;-76
2023/08/27 22:12:35;;;;;;;12.82;7.82;;;20.60;99.90;;;;;;5044499;28;20487;-77
2023/08/27 22:15:01;;;;;;;13.27;7.65;;;20.60;99.90;;;;;;5049370;28;20659;-76
2023/08/27 22:17:26;;;;;;;16.15;9.40;;;20.50;99.90;;;;;;5044919;28;20033;-76
2023/08/27 22:19:52;;;;;;;13.18;7.80;;;20.60;99.90;;;;;;5044594;28;20025;-76
2023/08/27 22:22:17;;;;;;;10.98;7.40;;;20.70;99.90;;;;;;5050865;28;20032;-76
2023/08/27 22:24:43;;;;;;;15.98;7.55;;;20.40;99.90;;;;;;5050319;28;20094;-76
2023/08/27 22:27:09;;;;;;;10.88;7.40;;;20.50;99.90;;;;;;5046344;28;20055;-76
2023/08/27 22:29:37;;;;;;;10.05;7.60;;;20.40;99.90;;;;;;5055320;28;20064;-77
2023/08/27 22:32:03;;;;;;;12.73;8.82;;;20.50;99.90;;;;;;5043865;28;20025;-76
2023/08/27 22:34:28;;;;;;;16.48;8.25;;;20.50;99.90;;;;;;5057515;28;20020;-77
2023/08/27 22:36:54;;;;;;;13.65;8.35;;;20.50;99.90;;;;;;5064786;28;20090;-76
2023/08/27 22:39:20;;;;;;;15.77;6.97;;;20.60;99.90;;;;;;5058429;28;20408;-77
2023/08/27 22:41:45;;;;;;;14.27;7.70;;;20.60;99.90;;;;;;5056394;28;20032;-76
2023/08/27 22:44:11;;;;;;;13.70;7.22;;;20.60;99.90;;;;;;5049864;28;20111;-76
2023/08/27 22:46:37;;;;;;;10.43;6.93;;;20.70;99.90;;;;;;5046636;28;20116;-77
2023/08/27 22:49:04;;;;;;;10.38;7.45;;;20.60;99.90;;;;;;5053720;28;20033;-77
2023/08/27 22:51:30;;;;;;;13.85;6.57;;;20.50;99.90;;;;;;5046584;28;20056;-76
2023/08/27 22:53:56;;;;;;;14.80;6.97;;;20.30;99.90;;;;;;5054148;28;20032;-77
2023/08/27 22:56:22;;;;;;;11.15;7.55;;;20.30;99.90;;;;;;5053431;28;20318;-76
2023/08/27 22:58:47;;;;;;;12.35;6.88;;;20.30;99.90;;;;;;5055898;28;20032;-76
2023/08/27 23:01:13;;;;;;;10.95;8.50;;;20.30;99.90;;;;;;5048453;28;20120;-77
2023/08/27 23:03:39;;;;;;;13.45;7.85;;;20.30;99.90;;;;;;5054552;28;20452;-77
2023/08/27 23:06:04;;;;;;;14.80;8.07;;;20.30;99.90;;;;;;5049892;28;20068;-76
2023/08/27 23:08:31;;;;;;;11.32;7.75;;;20.30;99.90;;;;;;5049575;28;20021;-77
2023/08/27 23:10:57;;;;;;;10.48;7.25;;;20.30;99.90;;;;;;5062401;28;20064;-77
2023/08/27 23:13:24;;;;;;;14.80;7.25;;;20.20;99.90;;;;;;5048944;28;20407;-76
2023/08/27 23:15:50;;;;;;;16.02;8.02;;;20.10;99.90;;;;;;5050097;28;20029;-76
2023/08/27 23:18:16;;;;;;;10.85;7.57;;;20.10;99.90;;;;;;5056841;28;20039;-76
2023/08/27 23:20:42;;;;;;;13.15;8.23;;;20.10;99.90;;;;;;5064485;28;20421;-77
2023/08/27 23:23:08;;;;;;;11.93;8.18;;;20.10;99.90;;;;;;5056285;28;20031;-77
2023/08/27 23:25:38;;;;;;;12.75;7.93;;;20.10;99.90;;;;;;5051816;28;20033;-76
2023/08/27 23:28:04;;;;;;;11.68;8.02;;;20.00;99.90;;;;;;5050132;28;20028;-76
2023/08/27 23:30:32;;;;;;;11.02;7.15;;;20.00;99.90;;;;;;5055382;28;20052;-76
2023/08/27 23:33:02;;;;;;;14.32;7.60;;;20.00;99.90;;;;;;5050471;28;20040;-76
2023/08/27 23:35:28;;;;;;;11.65;7.22;;;20.10;99.90;;;;;;5059979;28;20091;-76
2023/08/27 23:37:53;;;;;;;12.27;6.82;;;20.00;99.90;;;;;;5062357;28;20037;-76
2023/08/27 23:40:19;;;;;;;8.98;6.97;;;20.10;99.90;;;;;;5051621;28;20060;-76
2023/08/27 23:42:45;;;;;;;12.30;7.28;;;20.10;99.90;;;;;;5051159;28;20033;-76
2023/08/27 23:45:10;;;;;;;12.05;7.97;;;20.10;99.90;;;;;;5057205;28;20036;-77
2023/08/27 23:47:36;;;;;;;11.18;7.35;;;20.20;99.90;;;;;;5057665;28;20025;-76
2023/08/27 23:50:02;;;;;;;11.35;7.18;;;20.10;99.90;;;;;;5059099;28;20386;-76
2023/08/27 23:52:27;;;;;;;11.20;7.88;;;20.10;99.90;;;;;;5061878;28;20044;-76
2023/08/27 23:54:53;;;;;;;15.40;8.13;;;20.20;99.90;;;;;;5051193;28;20036;-76
2023/08/27 23:57:19;;;;;;;9.88;5.63;;;20.10;99.90;;;;;;5057122;28;20029;-76
2023/08/27 23:59:45;;;;;;;8.63;5.78;;;20.00;99.90;;;;;;5058110;28;20037;-76
